createdAt,value
2016-11-05T00:00:54.217Z,56.67
2016-11-05T00:01:54.200Z,56.87
2016-11-05T00:02:54.177Z,56.96
2016-11-05T00:03:54.174Z,56.77
2016-11-05T00:04:54.147Z,57.06
2016-11-05T00:05:54.133Z,56.67
2016-11-05T00:06:54.167Z,56.67
2016-11-05T00:07:54.096Z,57.06
2016-11-05T00:08:54.079Z,56.96
2016-11-05T00:09:54.065Z,57.06
2016-11-05T00:10:53.751Z,56.87
2016-11-05T00:11:54.035Z,56.87
2016-11-05T00:12:54.023Z,56.96
2016-11-05T00:13:54.004Z,57.06
2016-11-05T00:14:53.987Z,56.67
2016-11-05T00:15:53.968Z,56.67
2016-11-05T00:16:53.963Z,56.87
2016-11-05T00:17:53.938Z,57.25
2016-11-05T00:18:53.624Z,56.96
2016-11-05T00:19:53.903Z,57.25
2016-11-05T00:20:53.903Z,57.25
2016-11-05T00:21:53.874Z,56.77
2016-11-05T00:22:53.864Z,56.87
2016-11-05T00:23:53.840Z,56.87
2016-11-05T00:24:53.827Z,56.67
2016-11-05T00:25:53.811Z,56.87
2016-11-05T00:26:53.495Z,56.96
2016-11-05T00:27:53.476Z,57.45
2016-11-05T00:28:53.458Z,57.03
2016-11-05T00:29:53.747Z,57.25
2016-11-05T00:30:53.730Z,56.96
2016-11-05T00:31:53.716Z,56.93
2016-11-05T00:32:53.700Z,57.15
2016-11-05T00:33:53.715Z,56.93
2016-11-05T00:34:53.666Z,56.96
2016-11-05T00:35:53.648Z,57.35
2016-11-05T00:36:53.637Z,57.15
2016-11-05T00:37:53.668Z,57.54
2016-11-05T00:38:53.596Z,56.93
2016-11-05T00:39:53.600Z,56.77
2016-11-05T00:40:53.571Z,56.67
2016-11-05T00:41:53.551Z,56.87
2016-11-05T00:42:53.236Z,56.87
2016-11-05T00:43:53.517Z,57.35
2016-11-05T00:44:53.503Z,57.45
2016-11-05T00:45:53.483Z,57.64
2016-11-05T00:46:53.481Z,57.25
2016-11-05T00:47:53.452Z,57.45
2016-11-05T00:48:53.135Z,57.64
2016-11-05T00:49:53.123Z,57.64
2016-11-05T00:50:53.408Z,57.22
2016-11-05T00:51:53.393Z,57.35
2016-11-05T00:52:53.074Z,57.45
2016-11-05T00:53:53.355Z,57.64
2016-11-05T00:54:53.339Z,57.45
2016-11-05T00:55:53.322Z,57.45
2016-11-05T00:56:53.309Z,57.45
2016-11-05T00:57:53.290Z,57.45
2016-11-05T00:58:53.285Z,58.02
2016-11-05T00:59:53.257Z,58.12
2016-11-05T01:00:53.246Z,58.09
2016-11-05T01:01:53.227Z,58.02
2016-11-05T01:02:53.212Z,57.64
2016-11-05T01:03:53.192Z,57.99
2016-11-05T01:04:53.181Z,57.7
2016-11-05T01:05:53.170Z,57.99
2016-11-05T01:06:53.149Z,57.8
2016-11-05T01:07:53.128Z,57.8
2016-11-05T01:08:53.121Z,57.8
2016-11-05T01:09:53.099Z,57.9
2016-11-05T01:10:53.080Z,57.9
2016-11-05T01:11:53.073Z,57.9
2016-11-05T01:12:53.054Z,57.8
2016-11-05T01:13:53.033Z,57.7
2016-11-05T01:14:53.023Z,57.6
2016-11-05T01:15:53.004Z,57.6
2016-11-05T01:16:52.983Z,57.51
2016-11-05T01:17:52.971Z,57.6
2016-11-05T01:18:52.950Z,57.6
2016-11-05T01:19:52.937Z,57.7
2016-11-05T01:20:52.920Z,57.51
2016-11-05T01:21:52.903Z,57.7
2016-11-05T01:22:52.890Z,57.7
2016-11-05T01:23:52.872Z,57.7
2016-11-05T01:24:52.855Z,57.6
2016-11-05T01:25:52.836Z,57.8
2016-11-05T01:26:52.825Z,57.6
2016-11-05T01:27:52.805Z,57.8
2016-11-05T01:28:52.793Z,57.42
2016-11-05T01:29:52.775Z,57.8
2016-11-05T01:30:52.760Z,57.6
2016-11-05T01:31:52.775Z,57.51
2016-11-05T01:32:52.423Z,57.8
2016-11-05T01:33:52.708Z,57.8
2016-11-05T01:34:52.697Z,57.6
2016-11-05T01:35:52.674Z,57.6
2016-11-05T01:36:52.660Z,57.42
2016-11-05T01:37:52.643Z,57.7
2016-11-05T01:38:52.632Z,57.42
2016-11-05T01:39:52.615Z,57.99
2016-11-05T01:40:52.594Z,57.51
2016-11-05T01:41:52.280Z,57.7
2016-11-05T01:42:52.563Z,57.42
2016-11-05T01:43:52.544Z,57.6
2016-11-05T01:44:52.531Z,57.32
2016-11-05T01:45:52.512Z,57.51
2016-11-05T01:46:52.499Z,57.7
2016-11-05T01:47:52.517Z,57.9
2016-11-05T01:48:52.464Z,57.6
2016-11-05T01:49:52.450Z,57.42
2016-11-05T01:50:52.431Z,57.9
2016-11-05T01:51:52.422Z,58.09
2016-11-05T01:52:52.405Z,58.28
2016-11-05T01:53:52.390Z,57.9
2016-11-05T01:54:52.376Z,57.9
2016-11-05T01:55:52.353Z,58.09
2016-11-05T01:56:52.034Z,58.18
2016-11-05T01:57:52.325Z,58.18
2016-11-05T01:58:52.306Z,58.18
2016-11-05T01:59:52.290Z,57.99
2016-11-05T02:00:52.271Z,57.8
2016-11-05T02:01:52.256Z,58.18
2016-11-05T02:02:52.243Z,58.18
2016-11-05T02:03:52.225Z,57.99
2016-11-05T02:04:52.209Z,58.09
2016-11-05T02:05:52.188Z,57.99
2016-11-05T02:06:51.874Z,58.67
2016-11-05T02:07:52.154Z,58.47
2016-11-05T02:08:52.141Z,58.67
2016-11-05T02:09:52.124Z,58.57
2016-11-05T02:10:52.111Z,58.76
2016-11-05T02:11:52.091Z,58.28
2016-11-05T02:12:52.074Z,58.67
2016-11-05T02:13:51.757Z,58.67
2016-11-05T02:14:51.747Z,58.67
2016-11-05T02:15:52.029Z,58.57
2016-11-05T02:16:52.011Z,58.67
2016-11-05T02:17:51.994Z,58.57
2016-11-05T02:18:51.975Z,58.76
2016-11-05T02:19:51.957Z,58.67
2016-11-05T02:20:51.942Z,58.57
2016-11-05T02:21:51.927Z,58.67
2016-11-05T02:22:51.914Z,58.67
2016-11-05T02:23:51.894Z,58.57
2016-11-05T02:24:51.883Z,58.67
2016-11-05T02:25:51.862Z,58.67
2016-11-05T02:26:51.845Z,58.37
2016-11-05T02:27:51.827Z,58.47
2016-11-05T02:28:51.822Z,58.67
2016-11-05T02:29:51.795Z,58.67
2016-11-05T02:30:51.779Z,58.67
2016-11-05T02:31:51.762Z,58.47
2016-11-05T02:32:51.746Z,58.47
2016-11-05T02:33:51.739Z,58.47
2016-11-05T02:34:51.714Z,58.47
2016-11-05T02:35:51.699Z,58.18
2016-11-05T02:36:51.681Z,58.37
2016-11-05T02:37:51.662Z,58.28
2016-11-05T02:38:51.353Z,58.28
2016-11-05T02:39:51.633Z,58.67
2016-11-05T02:40:51.630Z,58.86
2016-11-05T02:41:51.601Z,58.37
2016-11-05T02:42:51.584Z,58.18
2016-11-05T02:43:51.267Z,58.28
2016-11-05T02:44:51.559Z,58.57
2016-11-05T02:45:51.536Z,58.67
2016-11-05T02:46:51.519Z,58.76
2016-11-05T02:47:51.499Z,58.67
2016-11-05T02:48:51.487Z,58.67
2016-11-05T02:49:51.467Z,58.76
2016-11-05T02:50:51.451Z,58.67
2016-11-05T02:51:51.438Z,58.67
2016-11-05T02:52:51.419Z,58.67
2016-11-05T02:53:51.408Z,58.76
2016-11-05T02:54:51.385Z,58.67
2016-11-05T02:55:51.373Z,58.76
2016-11-05T02:56:51.354Z,58.86
2016-11-05T02:57:51.347Z,58.76
2016-11-05T02:58:51.321Z,58.95
2016-11-05T02:59:51.314Z,58.76
2016-11-05T03:00:51.289Z,58.86
2016-11-05T03:01:51.272Z,58.86
2016-11-05T03:02:51.256Z,58.76
2016-11-05T03:03:51.239Z,59.34
2016-11-05T03:04:51.226Z,58.76
2016-11-05T03:05:51.208Z,58.67
2016-11-05T03:06:51.190Z,58.95
2016-11-05T03:07:51.207Z,59.05
2016-11-05T03:08:51.160Z,58.67
2016-11-05T03:09:51.146Z,59.05
2016-11-05T03:10:51.129Z,58.76
2016-11-05T03:11:51.112Z,59.05
2016-11-05T03:12:51.096Z,58.95
2016-11-05T03:13:50.775Z,58.95
2016-11-05T03:14:51.060Z,58.95
2016-11-05T03:15:51.045Z,58.67
2016-11-05T03:16:51.025Z,58.67
2016-11-05T03:17:51.014Z,58.86
2016-11-05T03:18:50.695Z,58.67
2016-11-05T03:19:50.978Z,58.76
2016-11-05T03:20:50.961Z,59.63
2016-11-05T03:21:50.949Z,59.15
2016-11-05T03:22:50.625Z,58.86
2016-11-05T03:23:50.914Z,59.44
2016-11-05T03:24:50.908Z,58.73
2016-11-05T03:25:50.884Z,58.67
2016-11-05T03:26:50.866Z,59.12
2016-11-05T03:27:50.549Z,58.76
2016-11-05T03:28:50.535Z,58.86
2016-11-05T03:29:50.817Z,58.67
2016-11-05T03:30:50.799Z,58.76
2016-11-05T03:31:50.784Z,59.05
2016-11-05T03:32:50.766Z,58.73
2016-11-05T03:33:50.751Z,58.57
2016-11-05T03:34:50.732Z,58.67
2016-11-05T03:35:50.719Z,59.05
2016-11-05T03:36:50.702Z,58.76
2016-11-05T03:37:50.686Z,58.76
2016-11-05T03:38:50.673Z,58.67
2016-11-05T03:39:50.656Z,58.76
2016-11-05T03:40:50.637Z,58.95
2016-11-05T03:41:50.622Z,58.95
2016-11-05T03:42:50.600Z,58.83
2016-11-05T03:43:50.588Z,58.86
2016-11-05T03:44:50.574Z,59.24
2016-11-05T03:45:50.555Z,58.83
2016-11-05T03:46:50.538Z,59.02
2016-11-05T03:47:50.529Z,59.02
2016-11-05T03:48:50.507Z,59.22
2016-11-05T03:49:50.489Z,59.22
2016-11-05T03:50:50.469Z,58.83
2016-11-05T03:51:50.453Z,58.92
2016-11-05T03:52:50.485Z,59.12
2016-11-05T03:53:50.421Z,58.92
2016-11-05T03:54:50.404Z,58.64
2016-11-05T03:55:50.390Z,59.41
2016-11-05T03:56:50.376Z,58.73
2016-11-05T03:57:50.365Z,58.83
2016-11-05T03:58:50.043Z,59.22
2016-11-05T03:59:50.322Z,59.89
2016-11-05T04:00:50.305Z,58.83
2016-11-05T04:01:50.292Z,58.83
2016-11-05T04:02:50.273Z,59.02
2016-11-05T04:03:50.259Z,58.83
2016-11-05T04:04:50.247Z,59.02
2016-11-05T04:05:50.227Z,59.31
2016-11-05T04:06:50.208Z,58.83
2016-11-05T04:07:50.197Z,59.41
2016-11-05T04:08:50.177Z,59.02
2016-11-05T04:09:50.158Z,59.6
2016-11-05T04:10:50.147Z,59.5
2016-11-05T04:11:49.825Z,59.5
2016-11-05T04:12:50.110Z,59.22
2016-11-05T04:13:50.096Z,59.12
2016-11-05T04:14:50.081Z,59.12
2016-11-05T04:15:50.061Z,59.89
2016-11-05T04:16:50.046Z,59.5
2016-11-05T04:17:49.731Z,59.69
2016-11-05T04:18:50.011Z,59.5
2016-11-05T04:19:49.999Z,59.31
2016-11-05T04:20:49.979Z,59.22
2016-11-05T04:21:49.962Z,59.6
2016-11-05T04:22:49.948Z,59.22
2016-11-05T04:23:49.939Z,59.41
2016-11-05T04:24:49.912Z,59.22
2016-11-05T04:25:49.897Z,59.69
2016-11-05T04:26:49.879Z,59.31
2016-11-05T04:27:49.866Z,59.22
2016-11-05T04:28:49.853Z,59.5
2016-11-05T04:29:49.836Z,59.12
2016-11-05T04:30:49.813Z,59.22
2016-11-05T04:31:49.798Z,59.41
2016-11-05T04:32:49.784Z,59.41
2016-11-05T04:33:49.499Z,59.41
2016-11-05T04:34:49.450Z,59.79
2016-11-05T04:35:49.732Z,59.12
2016-11-05T04:36:49.718Z,59.5
2016-11-05T04:37:49.743Z,59.69
2016-11-05T04:38:49.688Z,59.41
2016-11-05T04:39:49.666Z,59.5
2016-11-05T04:40:49.651Z,59.5
2016-11-05T04:41:49.632Z,59.79
2016-11-05T04:42:49.651Z,59.6
2016-11-05T04:43:49.602Z,59.41
2016-11-05T04:44:49.284Z,59.12
2016-11-05T04:45:49.571Z,59.69
2016-11-05T04:46:49.552Z,59.5
2016-11-05T04:47:49.535Z,59.6
2016-11-05T04:48:49.522Z,59.12
2016-11-05T04:49:49.508Z,59.31
2016-11-05T04:50:49.487Z,59.5
2016-11-05T04:51:49.167Z,59.31
2016-11-05T04:52:49.456Z,59.41
2016-11-05T04:53:49.469Z,59.41
2016-11-05T04:54:49.417Z,59.5
2016-11-05T04:55:49.407Z,59.31
2016-11-05T04:56:49.083Z,59.31
2016-11-05T04:57:49.364Z,59.5
2016-11-05T04:58:49.354Z,59.41
2016-11-05T04:59:49.338Z,59.6
2016-11-05T05:00:49.321Z,59.5
2016-11-05T05:01:49.306Z,59.41
2016-11-05T05:02:49.290Z,59.5
2016-11-05T05:03:49.273Z,59.69
2016-11-05T05:04:49.261Z,59.6
2016-11-05T05:05:49.239Z,59.41
2016-11-05T05:06:48.925Z,59.31
2016-11-05T05:07:48.910Z,59.89
2016-11-05T05:08:49.196Z,59.05
2016-11-05T05:09:48.874Z,59.05
2016-11-05T05:10:49.159Z,58.67
2016-11-05T05:11:49.140Z,58.57
2016-11-05T05:12:49.133Z,58.28
2016-11-05T05:13:48.811Z,58.57
2016-11-05T05:14:49.091Z,58.67
2016-11-05T05:15:48.773Z,58.37
2016-11-05T05:16:49.059Z,57.99
2016-11-05T05:17:49.042Z,57.83
2016-11-05T05:18:49.030Z,58.31
2016-11-05T05:19:49.008Z,57.9
2016-11-05T05:20:48.995Z,57.9
2016-11-05T05:21:49.012Z,57.92
2016-11-05T05:22:48.961Z,58.12
2016-11-05T05:23:48.943Z,57.92
2016-11-05T05:24:48.932Z,58.12
2016-11-05T05:25:48.921Z,58.02
2016-11-05T05:26:48.897Z,58.31
2016-11-05T05:27:48.580Z,57.83
2016-11-05T05:28:48.864Z,58.22
2016-11-05T05:29:48.848Z,58.12
2016-11-05T05:30:48.835Z,58.31
2016-11-05T05:31:48.814Z,58.5
2016-11-05T05:32:48.804Z,58.12
2016-11-05T05:33:48.782Z,57.83
2016-11-05T05:34:48.766Z,58.22
2016-11-05T05:35:48.749Z,57.92
2016-11-05T05:36:48.737Z,58.5
2016-11-05T05:37:48.716Z,58.22
2016-11-05T05:38:48.701Z,57.92
2016-11-05T05:39:48.684Z,58.12
2016-11-05T05:40:48.668Z,57.92
2016-11-05T05:41:48.355Z,58.12
2016-11-05T05:42:48.638Z,57.83
2016-11-05T05:43:48.317Z,57.92
2016-11-05T05:44:48.603Z,58.02
2016-11-05T05:45:48.586Z,58.12
2016-11-05T05:46:48.597Z,57.92
2016-11-05T05:47:48.556Z,58.12
2016-11-05T05:48:48.538Z,57.83
2016-11-05T05:49:48.523Z,57.83
2016-11-05T05:50:48.206Z,57.92
2016-11-05T05:51:48.493Z,57.92
2016-11-05T05:52:48.474Z,58.12
2016-11-05T05:53:48.455Z,58.5
2016-11-05T05:54:48.441Z,58.12
2016-11-05T05:55:48.422Z,57.83
2016-11-05T05:56:48.415Z,57.83
2016-11-05T05:57:48.393Z,57.92
2016-11-05T05:58:48.380Z,58.02
2016-11-05T05:59:48.357Z,57.64
2016-11-05T06:00:48.342Z,57.45
2016-11-05T06:01:48.327Z,57.73
2016-11-05T06:02:48.310Z,58.05
2016-11-05T06:03:48.295Z,57.64
2016-11-05T06:04:48.281Z,57.92
2016-11-05T06:05:48.266Z,57.92
2016-11-05T06:06:48.245Z,57.83
2016-11-05T06:07:48.236Z,57.83
2016-11-05T06:08:48.219Z,57.83
2016-11-05T06:09:48.199Z,57.83
2016-11-05T06:10:48.180Z,57.83
2016-11-05T06:11:47.864Z,57.92
2016-11-05T06:12:47.847Z,57.83
2016-11-05T06:13:48.133Z,58.12
2016-11-05T06:14:48.119Z,57.83
2016-11-05T06:15:48.107Z,58.02
2016-11-05T06:16:48.092Z,57.45
2016-11-05T06:17:48.074Z,57.76
2016-11-05T06:18:48.054Z,57.47
2016-11-05T06:19:48.041Z,57.45
2016-11-05T06:20:48.021Z,57.76
2016-11-05T06:21:48.004Z,57.67
2016-11-05T06:22:47.989Z,57.54
2016-11-05T06:23:47.977Z,58.15
2016-11-05T06:24:47.656Z,58.12
2016-11-05T06:25:47.941Z,57.76
2016-11-05T06:26:47.921Z,57.92
2016-11-05T06:27:47.907Z,57.64
2016-11-05T06:28:47.893Z,57.83
2016-11-05T06:29:47.877Z,57.67
2016-11-05T06:30:47.868Z,57.86
2016-11-05T06:31:47.848Z,57.67
2016-11-05T06:32:47.828Z,57.45
2016-11-05T06:33:47.811Z,57.76
2016-11-05T06:34:47.496Z,57.67
2016-11-05T06:35:47.780Z,57.67
2016-11-05T06:36:47.766Z,57.67
2016-11-05T06:37:47.747Z,57.76
2016-11-05T06:38:47.735Z,57.67
2016-11-05T06:39:47.720Z,58.05
2016-11-05T06:40:47.704Z,57.57
2016-11-05T06:41:47.385Z,57.76
2016-11-05T06:42:47.668Z,57.67
2016-11-05T06:43:47.655Z,57.47
2016-11-05T06:44:47.640Z,57.86
2016-11-05T06:45:47.622Z,57.67
2016-11-05T06:46:47.607Z,57.37
2016-11-05T06:47:47.586Z,57.67
2016-11-05T06:48:47.577Z,57.47
2016-11-05T06:49:47.559Z,57.47
2016-11-05T06:50:47.537Z,57.47
2016-11-05T06:51:47.524Z,57.57
2016-11-05T06:52:47.519Z,57.67
2016-11-05T06:53:47.490Z,57.95
2016-11-05T06:54:47.476Z,57.95
2016-11-05T06:55:47.464Z,57.57
2016-11-05T06:56:47.446Z,57.76
2016-11-05T06:57:47.434Z,57.67
2016-11-05T06:58:47.412Z,57.67
2016-11-05T06:59:47.435Z,57.95
2016-11-05T07:00:47.084Z,57.67
2016-11-05T07:01:47.363Z,57.57
2016-11-05T07:02:47.350Z,57.67
2016-11-05T07:03:47.336Z,57.95
2016-11-05T07:04:47.319Z,57.76
2016-11-05T07:05:47.298Z,58.05
2016-11-05T07:06:47.290Z,57.76
2016-11-05T07:07:47.267Z,58.15
2016-11-05T07:08:47.255Z,57.57
2016-11-05T07:09:47.237Z,58.24
2016-11-05T07:10:47.223Z,57.76
2016-11-05T07:11:47.206Z,57.67
2016-11-05T07:12:47.185Z,57.37
2016-11-05T07:13:47.176Z,57.28
2016-11-05T07:14:47.157Z,57.86
2016-11-05T07:15:47.145Z,57.47
2016-11-05T07:16:47.122Z,57.37
2016-11-05T07:17:47.112Z,57.47
2016-11-05T07:18:47.094Z,57.57
2016-11-05T07:19:47.084Z,57.76
2016-11-05T07:20:46.757Z,57.67
2016-11-05T07:21:47.084Z,57.57
2016-11-05T07:22:46.728Z,58.05
2016-11-05T07:23:47.012Z,58.15
2016-11-05T07:24:46.698Z,57.86
2016-11-05T07:25:47.017Z,58.15
2016-11-05T07:26:46.967Z,57.86
2016-11-05T07:27:46.953Z,57.86
2016-11-05T07:28:46.933Z,58.05
2016-11-05T07:29:46.918Z,57.86
2016-11-05T07:30:46.910Z,57.86
2016-11-05T07:31:46.885Z,57.95
2016-11-05T07:32:46.870Z,57.95
2016-11-05T07:33:46.559Z,58.05
2016-11-05T07:34:46.838Z,58.05
2016-11-05T07:35:46.822Z,57.95
2016-11-05T07:36:46.503Z,58.05
2016-11-05T07:37:46.794Z,58.05
2016-11-05T07:38:46.773Z,57.76
2016-11-05T07:39:46.758Z,57.86
2016-11-05T07:40:46.745Z,58.15
2016-11-05T07:41:46.728Z,57.86
2016-11-05T07:42:46.712Z,57.57
2016-11-05T07:43:46.397Z,57.76
2016-11-05T07:44:46.380Z,57.95
2016-11-05T07:45:46.666Z,57.86
2016-11-05T07:46:46.656Z,57.67
2016-11-05T07:47:46.634Z,57.67
2016-11-05T07:48:46.617Z,57.76
2016-11-05T07:49:46.603Z,57.47
2016-11-05T07:50:46.589Z,57.67
2016-11-05T07:51:46.572Z,57.76
2016-11-05T07:52:46.557Z,58.05
2016-11-05T07:53:46.240Z,57.57
2016-11-05T07:54:46.528Z,57.47
2016-11-05T07:55:46.508Z,57.67
2016-11-05T07:56:46.493Z,57.47
2016-11-05T07:57:46.483Z,57.67
2016-11-05T07:58:46.155Z,57.67
2016-11-05T07:59:46.447Z,57.95
2016-11-05T08:00:46.423Z,57.67
2016-11-05T08:01:46.417Z,57.95
2016-11-05T08:02:46.397Z,57.76
2016-11-05T08:03:46.381Z,57.95
2016-11-05T08:04:46.368Z,57.86
2016-11-05T08:05:46.048Z,57.76
2016-11-05T08:06:46.332Z,57.37
2016-11-05T08:07:46.318Z,57.57
2016-11-05T08:08:46.307Z,57.86
2016-11-05T08:09:46.292Z,57.86
2016-11-05T08:10:46.271Z,57.95
2016-11-05T08:11:46.256Z,57.86
2016-11-05T08:12:46.241Z,57.95
2016-11-05T08:13:46.225Z,57.95
2016-11-05T08:14:46.216Z,57.57
2016-11-05T08:15:46.191Z,57.95
2016-11-05T08:16:46.178Z,57.76
2016-11-05T08:17:46.162Z,57.67
2016-11-05T08:18:46.144Z,57.86
2016-11-05T08:19:46.135Z,57.76
2016-11-05T08:20:46.115Z,57.86
2016-11-05T08:21:46.097Z,57.86
2016-11-05T08:22:46.093Z,57.86
2016-11-05T08:23:46.072Z,57.86
2016-11-05T08:24:46.054Z,57.86
2016-11-05T08:25:46.034Z,57.86
2016-11-05T08:26:46.019Z,57.86
2016-11-05T08:27:46.000Z,57.57
2016-11-05T08:28:45.989Z,58.15
2016-11-05T08:29:45.969Z,58.05
2016-11-05T08:30:45.957Z,57.37
2016-11-05T08:31:45.942Z,57.79
2016-11-05T08:32:45.922Z,57.95
2016-11-05T08:33:45.909Z,57.95
2016-11-05T08:34:45.887Z,56.8
2016-11-05T08:35:45.879Z,55.67
2016-11-05T08:36:45.867Z,55.26
2016-11-05T08:37:45.545Z,55.93
2016-11-05T08:38:45.827Z,56.12
2016-11-05T08:39:45.816Z,56.8
2016-11-05T08:40:45.803Z,56.41
2016-11-05T08:41:45.781Z,56.9
2016-11-05T08:42:45.773Z,56.7
2016-11-05T08:43:45.754Z,56.9
2016-11-05T08:44:45.734Z,57.09
2016-11-05T08:45:45.725Z,56.9
2016-11-05T08:46:45.703Z,57.09
2016-11-05T08:47:45.689Z,57.09
2016-11-05T08:48:45.672Z,56.99
2016-11-05T08:49:45.355Z,57.28
2016-11-05T08:50:45.641Z,57.47
2016-11-05T08:51:45.324Z,56.9
2016-11-05T08:52:45.607Z,57.47
2016-11-05T08:53:45.597Z,56.8
2016-11-05T08:54:45.584Z,57.47
2016-11-05T08:55:45.573Z,57.57
2016-11-05T08:56:45.556Z,57.37
2016-11-05T08:57:45.533Z,57.47
2016-11-05T08:58:45.516Z,57.47
2016-11-05T08:59:45.510Z,57.37
2016-11-05T09:00:45.186Z,57.37
2016-11-05T09:01:45.472Z,57.67
2016-11-05T09:02:45.451Z,57.57
2016-11-05T09:03:45.139Z,57.37
2016-11-05T09:04:45.118Z,57.67
2016-11-05T09:05:45.415Z,57.37
2016-11-05T09:06:45.388Z,57.57
2016-11-05T09:07:45.373Z,57.47
2016-11-05T09:08:45.364Z,57.37
2016-11-05T09:09:45.344Z,57.37
2016-11-05T09:10:45.325Z,57.28
2016-11-05T09:11:45.310Z,57.37
2016-11-05T09:12:45.297Z,57.28
2016-11-05T09:13:45.290Z,57.67
2016-11-05T09:14:45.264Z,56.9
2016-11-05T09:15:45.249Z,56.9
2016-11-05T09:16:44.930Z,57.18
2016-11-05T09:17:45.221Z,57.12
2016-11-05T09:18:45.198Z,57.31
2016-11-05T09:19:45.193Z,57.21
2016-11-05T09:20:44.869Z,57.21
2016-11-05T09:21:45.154Z,57.37
2016-11-05T09:22:45.139Z,57.09
2016-11-05T09:23:45.122Z,56.99
2016-11-05T09:24:45.103Z,57.37
2016-11-05T09:25:45.090Z,57.5
2016-11-05T09:26:45.077Z,57.57
2016-11-05T09:27:45.057Z,57.12
2016-11-05T09:28:45.044Z,54.39
2016-11-05T09:29:44.727Z,52.75
2016-11-05T09:30:45.015Z,52.66
2016-11-05T09:31:44.996Z,52.95
2016-11-05T09:32:44.678Z,53.53
2016-11-05T09:33:44.966Z,54.39
2016-11-05T09:34:44.949Z,55.65
2016-11-05T09:35:44.935Z,55.83
2016-11-05T09:36:44.914Z,56.03
2016-11-05T09:37:44.907Z,56.41
2016-11-05T09:38:44.592Z,56.41
2016-11-05T09:39:44.872Z,56.8
2016-11-05T09:40:44.856Z,56.32
2016-11-05T09:41:44.842Z,56.51
2016-11-05T09:42:44.820Z,56.51
2016-11-05T09:43:44.808Z,56.41
2016-11-05T09:44:44.789Z,56.6
2016-11-05T09:45:44.776Z,56.51
2016-11-05T09:46:44.763Z,56.99
2016-11-05T09:47:44.745Z,56.41
2016-11-05T09:48:44.728Z,56.51
2016-11-05T09:49:44.715Z,56.8
2016-11-05T09:50:44.695Z,57.02
2016-11-05T09:51:44.679Z,56.6
2016-11-05T09:52:44.664Z,56.99
2016-11-05T09:53:44.650Z,56.54
2016-11-05T09:54:44.635Z,56.8
2016-11-05T09:55:44.618Z,56.82
2016-11-05T09:56:44.603Z,56.51
2016-11-05T09:57:44.587Z,56.8
2016-11-05T09:58:44.568Z,56.51
2016-11-05T09:59:44.562Z,56.51
2016-11-05T10:00:44.542Z,56.9
2016-11-05T10:01:44.540Z,57.02
2016-11-05T10:02:44.514Z,56.99
2016-11-05T10:03:44.496Z,56.41
2016-11-05T10:04:44.478Z,56.32
2016-11-05T10:05:44.464Z,56.32
2016-11-05T10:06:44.449Z,56.8
2016-11-05T10:07:44.434Z,56.41
2016-11-05T10:08:44.414Z,56.51
2016-11-05T10:09:44.405Z,56.32
2016-11-05T10:10:44.379Z,56.63
2016-11-05T10:11:44.363Z,56.41
2016-11-05T10:12:44.351Z,55.83
2016-11-05T10:13:44.339Z,55.16
2016-11-05T10:14:44.031Z,55.35
2016-11-05T10:15:44.308Z,55.93
2016-11-05T10:16:44.285Z,55.74
2016-11-05T10:17:43.972Z,55.83
2016-11-05T10:18:44.256Z,55.55
2016-11-05T10:19:44.249Z,55.45
2016-11-05T10:20:44.224Z,55.83
2016-11-05T10:21:44.209Z,55.65
2016-11-05T10:22:44.194Z,55.77
2016-11-05T10:23:44.174Z,56.05
2016-11-05T10:24:44.163Z,55.55
2016-11-05T10:25:44.146Z,55.93
2016-11-05T10:26:44.131Z,55.57
2016-11-05T10:27:44.115Z,55.67
2016-11-05T10:28:44.105Z,55.55
2016-11-05T10:29:44.081Z,55.67
2016-11-05T10:30:44.066Z,55.57
2016-11-05T10:31:44.053Z,55.87
2016-11-05T10:32:44.043Z,55.96
2016-11-05T10:33:44.023Z,56.05
2016-11-05T10:34:43.701Z,56.05
2016-11-05T10:35:43.990Z,55.96
2016-11-05T10:36:43.979Z,55.77
2016-11-05T10:37:43.955Z,55.67
2016-11-05T10:38:43.942Z,55.77
2016-11-05T10:39:43.927Z,55.77
2016-11-05T10:40:43.907Z,55.38
2016-11-05T10:41:43.898Z,55.87
2016-11-05T10:42:43.884Z,55.48
2016-11-05T10:43:43.865Z,55.96
2016-11-05T10:44:43.848Z,55.77
2016-11-05T10:45:43.835Z,55.87
2016-11-05T10:46:43.817Z,55.67
2016-11-05T10:47:43.803Z,55.96
2016-11-05T10:48:43.783Z,55.57
2016-11-05T10:49:43.772Z,55.96
2016-11-05T10:50:43.755Z,55.67
2016-11-05T10:51:43.742Z,55.87
2016-11-05T10:52:43.721Z,55.57
2016-11-05T10:53:43.705Z,55.77
2016-11-05T10:54:43.690Z,55.87
2016-11-05T10:55:43.672Z,55.96
2016-11-05T10:56:43.659Z,55.67
2016-11-05T10:57:43.646Z,55.67
2016-11-05T10:58:43.328Z,55.77
2016-11-05T10:59:43.609Z,55.77
2016-11-05T11:00:43.598Z,55.77
2016-11-05T11:01:43.577Z,55.87
2016-11-05T11:02:43.264Z,55.96
2016-11-05T11:03:43.544Z,56.05
2016-11-05T11:04:43.533Z,55.67
2016-11-05T11:05:43.516Z,55.87
2016-11-05T11:06:43.499Z,55.77
2016-11-05T11:07:43.488Z,55.67
2016-11-05T11:08:43.470Z,55.87
2016-11-05T11:09:43.454Z,55.87
2016-11-05T11:10:43.438Z,55.77
2016-11-05T11:11:43.425Z,55.83
2016-11-05T11:12:43.106Z,55.77
2016-11-05T11:13:43.394Z,55.96
2016-11-05T11:14:43.371Z,55.67
2016-11-05T11:15:43.358Z,55.38
2016-11-05T11:16:43.346Z,55.87
2016-11-05T11:17:43.334Z,55.77
2016-11-05T11:18:43.316Z,55.67
2016-11-05T11:19:43.001Z,55.77
2016-11-05T11:20:43.283Z,56.05
2016-11-05T11:21:43.265Z,55.67
2016-11-05T11:22:43.249Z,55.77
2016-11-05T11:23:43.237Z,55.67
2016-11-05T11:24:43.219Z,55.96
2016-11-05T11:25:43.212Z,56.05
2016-11-05T11:26:42.887Z,55.77
2016-11-05T11:27:43.172Z,55.67
2016-11-05T11:28:43.158Z,55.87
2016-11-05T11:29:43.143Z,55.67
2016-11-05T11:30:43.126Z,55.87
2016-11-05T11:31:43.111Z,56.05
2016-11-05T11:32:43.097Z,55.96
2016-11-05T11:33:43.083Z,55.67
2016-11-05T11:34:42.767Z,55.77
2016-11-05T11:35:43.048Z,55.67
2016-11-05T11:36:43.034Z,55.48
2016-11-05T11:37:43.015Z,55.29
2016-11-05T11:38:43.001Z,55.57
2016-11-05T11:39:42.984Z,55.57
2016-11-05T11:40:42.968Z,55.77
2016-11-05T11:41:42.952Z,55.67
2016-11-05T11:42:42.937Z,55.38
2016-11-05T11:43:42.920Z,55.19
2016-11-05T11:44:42.608Z,55.09
2016-11-05T11:45:42.898Z,55.57
2016-11-05T11:46:42.874Z,55.48
2016-11-05T11:47:42.556Z,55.19
2016-11-05T11:48:42.543Z,55
2016-11-05T11:49:42.827Z,55.29
2016-11-05T11:50:42.811Z,55.57
2016-11-05T11:51:42.494Z,55.38
2016-11-05T11:52:42.790Z,55.67
2016-11-05T11:53:42.764Z,55.77
2016-11-05T11:54:42.748Z,55.57
2016-11-05T11:55:42.731Z,55.19
2016-11-05T11:56:42.714Z,55.19
2016-11-05T11:57:42.701Z,55.57
2016-11-05T11:58:42.685Z,55.19
2016-11-05T11:59:42.368Z,55.29
2016-11-05T12:00:42.660Z,55.29
2016-11-05T12:01:42.641Z,55.87
2016-11-05T12:02:42.623Z,55.96
2016-11-05T12:03:42.608Z,55.96
2016-11-05T12:04:42.588Z,55.96
2016-11-05T12:05:42.575Z,56.25
2016-11-05T12:06:42.283Z,55.96
2016-11-05T12:07:42.545Z,55.77
2016-11-05T12:08:42.528Z,55.57
2016-11-05T12:09:42.512Z,55.77
2016-11-05T12:10:42.497Z,55.67
2016-11-05T12:11:42.484Z,56.05
2016-11-05T12:12:42.465Z,55.67
2016-11-05T12:13:42.456Z,55.48
2016-11-05T12:14:42.444Z,55.77
2016-11-05T12:15:42.419Z,56.05
2016-11-05T12:16:42.412Z,55.96
2016-11-05T12:17:42.391Z,55.77
2016-11-05T12:18:42.374Z,56.44
2016-11-05T12:19:42.360Z,56.35
2016-11-05T12:20:42.341Z,57.31
2016-11-05T12:21:42.326Z,56.82
2016-11-05T12:22:42.316Z,56.82
2016-11-05T12:23:42.298Z,56.82
2016-11-05T12:24:42.284Z,56.73
2016-11-05T12:25:42.268Z,56.73
2016-11-05T12:26:42.246Z,57.31
2016-11-05T12:27:42.230Z,56.92
2016-11-05T12:28:42.229Z,56.82
2016-11-05T12:29:42.200Z,56.44
2016-11-05T12:30:42.187Z,57.02
2016-11-05T12:31:42.170Z,57.02
2016-11-05T12:32:42.152Z,57.21
2016-11-05T12:33:42.139Z,57.02
2016-11-05T12:34:42.124Z,56.54
2016-11-05T12:35:42.110Z,56.54
2016-11-05T12:36:41.793Z,56.73
2016-11-05T12:37:42.078Z,56.54
2016-11-05T12:38:42.062Z,56.82
2016-11-05T12:39:42.044Z,56.73
2016-11-05T12:40:42.029Z,56.82
2016-11-05T12:41:42.012Z,56.54
2016-11-05T12:42:41.999Z,56.35
2016-11-05T12:43:41.980Z,56.44
2016-11-05T12:44:41.966Z,56.54
2016-11-05T12:45:41.952Z,56.44
2016-11-05T12:46:41.935Z,56.25
2016-11-05T12:47:41.618Z,56.44
2016-11-05T12:48:41.939Z,56.44
2016-11-05T12:49:41.887Z,56.92
2016-11-05T12:50:41.874Z,56.73
2016-11-05T12:51:41.859Z,57.02
2016-11-05T12:52:41.852Z,57.12
2016-11-05T12:53:41.825Z,57.21
2016-11-05T12:54:41.813Z,57.02
2016-11-05T12:55:41.801Z,57.5